Friday, January 18, 2019, 2:49 AM EST
Back to Local

KBTV, Burlington International

Location: South Burlington, VT, United States Lat: 44.467
Local Time: 2:49 AM EST ( 7:49 GMT) Lon: -73.15
Time Zone: US/Eastern Elev: 334 ft

Show me the last for .
Show Decoded

2019-01-18 01:54 METAR KBTV 180654Z 16011KT 10SM OVC047 M07/M17 A3011 RMK AO2 SLP204 T10721172 =
2019-01-18 00:54 METAR KBTV 180554Z 20005KT 10SM BKN110 M08/M19 A3014 RMK AO2 SLP213 T10781189
                 11078 21117 56027 =
2019-01-17 23:54 METAR KBTV 180454Z 18007KT 10SM OVC110 M08/M18 A3015 RMK AO2 SLP218 LAST
                 T10781178 410781183 =
2019-01-17 22:54 METAR KBTV 180354Z VRB04KT 10SM OVC060 M09/M17 A3020 RMK AO2 SLP234 T10891172 =
2019-01-17 21:54 METAR KBTV 180254Z 14003KT 10SM OVC090 M09/M17 A3022 RMK AO2 SLP242 T10941172
                 58026 =
2019-01-17 20:54 METAR KBTV 180154Z 14003KT 10SM OVC110 M11/M17 A3025 RMK AO2 SLP250 T11061167 =
2019-01-17 19:54 METAR KBTV 180054Z 10003KT 10SM OVC130 M12/M18 A3028 RMK AO2 SLP261 T11171178 =
2019-01-17 18:54 METAR KBTV 172354Z 09004KT 10SM BKN150 M12/M18 A3030 RMK AO2 SLP269 4/004
                 T11171178 11094 21117 56006 =
2019-01-17 17:54 METAR KBTV 172254Z 00000KT 10SM OVC150 M11/M18 A3030 RMK AO2 SLP270 T11061183 =
2019-01-17 16:54 METAR KBTV 172154Z 00000KT 10SM BKN150 M11/M19 A3030 RMK AO2 SLP267 T11111194 =
2019-01-17 15:54 METAR KBTV 172054Z 00000KT 10SM BKN200 M10/M20 A3032 RMK AO2 SLP275 T11001200
                 58019 =
2019-01-17 14:54 METAR KBTV 171954Z 00000KT 10SM SCT200 M10/M20 A3034 RMK AO2 SLP283 T11001200 =
2019-01-17 13:54 METAR KBTV 171854Z 22004KT 10SM SCT200 M11/M20 A3035 RMK AO2 SLP287 T11061200 =
2019-01-17 12:54 METAR KBTV 171754Z 22003KT 10SM SCT200 M12/M20 A3037 RMK AO2 SLP294 4/004
                 T11171200 11117 21183 58026 =
2019-01-17 11:54 METAR KBTV 171654Z VRB05KT 10SM FEW035 FEW200 M13/M19 A3041 RMK AO2 SLP306
                 T11281194 =
2019-01-17 10:54 METAR KBTV 171554Z 00000KT 10SM FEW035 M13/M21 A3045 RMK AO2 SLP320 T11281206 =
2019-01-17 09:54 METAR KBTV 171454Z 00000KT 10SM FEW030 M16/M21 A3045 RMK AO2 SLP320 T11561211
                 51021 =
2019-01-17 08:54 METAR KBTV 171354Z 00000KT 10SM CLR M17/M21 A3045 RMK AO2 SLP318 T11671211 =
2019-01-17 07:54 METAR KBTV 171254Z 06004KT 10SM CLR M18/M22 A3042 RMK AO2 SLP308 T11781217 =
2019-01-17 06:54 METAR KBTV 171154Z 07005KT 10SM FEW020 M18/M22 A3039 RMK AO2 SLP299 4/004 70001
                 T11781217 11150 21178 51008 =
2019-01-17 05:54 METAR KBTV 171054Z 04005KT 10SM FEW020 M17/M22 A3039 RMK AO2 SLP298 T11721217 =
2019-01-17 04:54 METAR KBTV 170954Z 05006KT 10SM SCT023 M16/M21 A3038 RMK AO2 SLP293 T11611211 =
2019-01-17 04:35 METAR KBTV 170935Z 05006KT 10SM SCT024 M16/M21 A3037 RMK AO2 T11561211 =
2019-01-17 03:54 METAR KBTV 170854Z 06007KT 10SM OVC026 M16/M21 A3037 RMK AO2 SLP290 T11561206
                 51022 =
2019-01-17 02:54 METAR KBTV 170754Z 00000KT 10SM BKN025 M15/M21 A3035 RMK AO2 SLP285 T11501206 =

Support USWX by starting your Amazon purchase here.